Time,TemperatureF,DewpointF,PressureIn,WindDirection,WindDirectionDegrees,WindSpeedMPH,WindSpeedGustMPH,Humidity,HourlyPrecipIn,Conditions,Clouds,dailyrainin,SoftwareType,DateUTC
2013-09-03 00:09:00,77.6,74.0,29.75,WSW,245,0.0,3.0,87,0.00,,,0.00,weatherlink.com 1.10,2013-09-03 04:09:00,
2013-09-03 00:24:00,77.4,74.0,29.74,WSW,242,0.0,2.0,88,0.00,,,0.00,weatherlink.com 1.10,2013-09-03 04:24:00,
2013-09-03 00:39:00,77.5,73.0,29.73,WSW,243,2.0,3.0,87,0.00,,,0.00,weatherlink.com 1.10,2013-09-03 04:39:00,
2013-09-03 00:54:00,77.6,74.0,29.73,WSW,246,0.0,4.0,87,0.00,,,0.00,weatherlink.com 1.10,2013-09-03 04:54:00,
2013-09-03 01:09:00,77.4,73.0,29.73,WSW,243,1.0,4.0,87,0.00,,,0.00,weatherlink.com 1.10,2013-09-03 05:09:00,
2013-09-03 01:24:00,77.2,73.0,29.72,WSW,239,1.0,4.0,87,0.00,,,0.00,weatherlink.com 1.10,2013-09-03 05:24:00,
2013-09-03 01:40:00,77.4,73.0,29.71,WSW,245,0.0,3.0,86,0.00,,,0.00,weatherlink.com 1.10,2013-09-03 05:40:00,
2013-09-03 01:55:00,77.3,73.0,29.71,WSW,243,0.0,3.0,86,0.00,,,0.00,weatherlink.com 1.10,2013-09-03 05:55:00,
2013-09-03 02:10:00,76.7,73.0,29.71,WSW,248,0.0,3.0,87,0.00,,,0.00,weatherlink.com 1.10,2013-09-03 06:10:00,
2013-09-03 02:25:00,76.1,72.0,29.71,WSW,245,0.0,2.0,88,0.00,,,0.00,weatherlink.com 1.10,2013-09-03 06:25:00,
2013-09-03 02:40:00,75.7,72.0,29.72,WSW,246,0.0,1.0,89,0.00,,,0.00,weatherlink.com 1.10,2013-09-03 06:40:00,
2013-09-03 02:55:00,75.4,72.0,29.71,WSW,245,0.0,3.0,90,0.00,,,0.00,weatherlink.com 1.10,2013-09-03 06:55:00,
2013-09-03 03:10:00,75.3,72.0,29.71,WSW,246,0.0,1.0,90,0.00,,,0.00,weatherlink.com 1.10,2013-09-03 07:10:00,
2013-09-03 03:25:00,75.3,72.0,29.71,WSW,246,1.0,4.0,90,0.00,,,0.00,weatherlink.com 1.10,2013-09-03 07:25:00,
2013-09-03 03:40:00,75.3,72.0,29.71,West,264,0.0,4.0,90,0.00,,,0.00,weatherlink.com 1.10,2013-09-03 07:40:00,
2013-09-03 03:55:00,75.3,72.0,29.71,NE,43,0.0,1.0,90,0.00,,,0.00,weatherlink.com 1.10,2013-09-03 07:55:00,
2013-09-03 04:10:00,75.2,72.0,29.71,NE,34,0.0,1.0,90,0.00,,,0.00,weatherlink.com 1.10,2013-09-03 08:10:00,
2013-09-03 04:25:00,75.1,72.0,29.70,WSW,252,0.0,1.0,90,0.00,,,0.00,weatherlink.com 1.10,2013-09-03 08:25:00,
2013-09-03 04:40:00,74.7,72.0,29.71,West,263,0.0,2.0,91,0.00,,,0.00,weatherlink.com 1.10,2013-09-03 08:40:00,
2013-09-03 04:56:00,74.5,72.0,29.71,WSW,250,0.0,2.0,92,0.00,,,0.00,weatherlink.com 1.10,2013-09-03 08:56:00,
2013-09-03 05:10:00,74.4,72.0,29.72,West,276,1.0,3.0,92,0.00,,,0.00,weatherlink.com 1.10,2013-09-03 09:10:00,
2013-09-03 05:25:00,74.2,72.0,29.73,West,266,0.0,4.0,92,0.00,,,0.00,weatherlink.com 1.10,2013-09-03 09:25:00,
2013-09-03 05:40:00,74.0,71.0,29.73,WNW,287,0.0,2.0,91,0.00,,,0.00,weatherlink.com 1.10,2013-09-03 09:40:00,
2013-09-03 05:55:00,74.0,71.0,29.74,WSW,252,1.0,4.0,90,0.00,,,0.00,weatherlink.com 1.10,2013-09-03 09:55:00,
2013-09-03 06:10:00,73.9,71.0,29.75,NE,50,0.0,4.0,89,0.00,,,0.00,weatherlink.com 1.10,2013-09-03 10:10:00,
2013-09-03 06:25:00,73.9,70.0,29.75,WNW,283,1.0,5.0,88,0.00,,,0.00,weatherlink.com 1.10,2013-09-03 10:25:00,
2013-09-03 06:40:00,73.9,70.0,29.76,WSW,253,0.0,3.0,87,0.00,,,0.00,weatherlink.com 1.10,2013-09-03 10:40:00,
2013-09-03 06:55:00,73.7,70.0,29.76,West,276,0.0,3.0,87,0.00,,,0.00,weatherlink.com 1.10,2013-09-03 10:55:00,
2013-09-03 07:10:00,73.8,70.0,29.76,NE,44,0.0,1.0,87,0.00,,,0.00,weatherlink.com 1.10,2013-09-03 11:10:00,
2013-09-03 07:25:00,73.9,70.0,29.77,WSW,256,0.0,2.0,87,0.00,,,0.00,weatherlink.com 1.10,2013-09-03 11:25:00,
2013-09-03 07:40:00,74.0,70.0,29.78,West,278,1.0,3.0,87,0.00,,,0.00,weatherlink.com 1.10,2013-09-03 11:40:00,
2013-09-03 07:55:00,74.0,70.0,29.79,WNW,300,1.0,3.0,87,0.00,,,0.00,weatherlink.com 1.10,2013-09-03 11:55:00,
2013-09-03 08:10:00,74.4,70.0,29.80,NW,305,1.0,3.0,86,0.00,,,0.00,weatherlink.com 1.10,2013-09-03 12:10:00,
2013-09-03 08:25:00,74.9,71.0,29.79,WNW,292,0.0,2.0,86,0.00,,,0.00,weatherlink.com 1.10,2013-09-03 12:25:00,
2013-09-03 08:40:00,75.1,71.0,29.80,North,360,0.0,3.0,86,0.00,,,0.00,weatherlink.com 1.10,2013-09-03 12:40:00,
2013-09-03 08:55:00,75.5,71.0,29.80,WNW,288,0.0,3.0,85,0.00,,,0.00,weatherlink.com 1.10,2013-09-03 12:55:00,
2013-09-03 09:10:00,75.8,71.0,29.81,NE,39,0.0,3.0,84,0.00,,,0.00,weatherlink.com 1.10,2013-09-03 13:10:00,
2013-09-03 09:25:00,77.0,72.0,29.81,NNW,337,0.0,3.0,83,0.00,,,0.00,weatherlink.com 1.10,2013-09-03 13:25:00,
2013-09-03 09:40:00,78.3,72.0,29.81,NNE,31,1.0,4.0,80,0.00,,,0.00,weatherlink.com 1.10,2013-09-03 13:40:00,
2013-09-03 09:55:00,79.0,71.0,29.83,West,277,4.0,6.0,77,0.00,,,0.00,weatherlink.com 1.10,2013-09-03 13:55:00,
2013-09-03 10:14:00,80.3,71.0,29.82,NE,44,0.0,3.0,74,0.00,,,0.00,weatherlink.com 1.10,2013-09-03 14:14:00,
2013-09-03 10:25:00,81.0,71.0,29.83,NE,34,1.0,8.0,71,0.00,,,0.00,weatherlink.com 1.10,2013-09-03 14:25:00,
2013-09-03 10:41:00,81.3,70.0,29.82,WNW,296,2.0,4.0,69,0.00,,,0.00,weatherlink.com 1.10,2013-09-03 14:41:00,
2013-09-03 10:56:00,81.7,71.0,29.82,ESE,111,1.0,4.0,69,0.00,,,0.00,weatherlink.com 1.10,2013-09-03 14:56:00,
2013-09-03 11:11:00,82.2,70.0,29.82,SSE,154,3.0,7.0,66,0.00,,,0.00,weatherlink.com 1.10,2013-09-03 15:11:00,
2013-09-03 11:26:00,82.8,69.0,29.82,West,274,2.0,4.0,63,0.00,,,0.00,weatherlink.com 1.10,2013-09-03 15:26:00,
2013-09-03 11:41:00,83.4,68.0,29.83,West,269,1.0,4.0,61,0.00,,,0.00,weatherlink.com 1.10,2013-09-03 15:41:00,
2013-09-03 11:56:00,83.8,67.0,29.82,WNW,299,1.0,5.0,57,0.00,,,0.00,weatherlink.com 1.10,2013-09-03 15:56:00,
2013-09-03 12:11:00,84.0,65.0,29.83,WNW,294,1.0,7.0,53,0.00,,,0.00,weatherlink.com 1.10,2013-09-03 16:11:00,
2013-09-03 12:26:00,84.2,66.0,29.83,NW,316,3.0,6.0,54,0.00,,,0.00,weatherlink.com 1.10,2013-09-03 16:26:00,
2013-09-03 12:41:00,84.2,65.0,29.83,ENE,63,4.0,5.0,53,0.00,,,0.00,weatherlink.com 1.10,2013-09-03 16:41:00,
2013-09-03 12:56:00,84.3,66.0,29.83,West,274,3.0,7.0,55,0.00,,,0.00,weatherlink.com 1.10,2013-09-03 16:56:00,
2013-09-03 13:26:00,85.8,66.0,29.82,NNE,16,3.0,4.0,52,0.00,,,0.00,weatherlink.com 1.10,2013-09-03 17:26:00,
2013-09-03 13:41:00,84.9,65.0,29.82,West,270,0.0,8.0,52,0.00,,,0.00,weatherlink.com 1.10,2013-09-03 17:41:00,
2013-09-03 13:56:00,84.1,66.0,29.83,West,270,1.0,7.0,54,0.00,,,0.00,weatherlink.com 1.10,2013-09-03 17:56:00,
2013-09-03 14:11:00,84.2,65.0,29.82,NW,306,1.0,6.0,52,0.00,,,0.00,weatherlink.com 1.10,2013-09-03 18:11:00,
2013-09-03 14:26:00,84.4,65.0,29.82,West,276,0.0,5.0,53,0.00,,,0.00,weatherlink.com 1.10,2013-09-03 18:26:00,
2013-09-03 14:41:00,85.2,66.0,29.82,NE,41,0.0,7.0,52,0.00,,,0.00,weatherlink.com 1.10,2013-09-03 18:41:00,
2013-09-03 14:56:00,84.6,65.0,29.81,West,259,1.0,6.0,52,0.00,,,0.00,weatherlink.com 1.10,2013-09-03 18:56:00,
2013-09-03 15:11:00,84.1,65.0,29.80,NE,37,0.0,5.0,53,0.00,,,0.00,weatherlink.com 1.10,2013-09-03 19:11:00,
2013-09-03 15:26:00,82.9,64.0,29.80,West,281,3.0,4.0,53,0.00,,,0.00,weatherlink.com 1.10,2013-09-03 19:26:00,
2013-09-03 15:41:00,83.9,64.0,29.80,West,270,2.0,6.0,51,0.00,,,0.00,weatherlink.com 1.10,2013-09-03 19:41:00,
2013-09-03 15:56:00,84.8,64.0,29.80,NNW,335,0.0,6.0,49,0.00,,,0.00,weatherlink.com 1.10,2013-09-03 19:56:00,
2013-09-03 16:11:00,84.7,65.0,29.80,North,1,0.0,7.0,51,0.00,,,0.00,weatherlink.com 1.10,2013-09-03 20:11:00,
2013-09-03 16:26:00,84.5,63.0,29.80,NW,321,1.0,5.0,49,0.00,,,0.00,weatherlink.com 1.10,2013-09-03 20:26:00,
2013-09-03 16:41:00,84.1,63.0,29.79,NE,54,1.0,4.0,49,0.00,,,0.00,weatherlink.com 1.10,2013-09-03 20:41:00,
2013-09-03 16:56:00,83.3,63.0,29.80,NW,319,1.0,4.0,51,0.00,,,0.00,weatherlink.com 1.10,2013-09-03 20:56:00,
2013-09-03 17:11:00,82.7,63.0,29.81,WSW,253,0.0,3.0,52,0.00,,,0.00,weatherlink.com 1.10,2013-09-03 21:11:00,
2013-09-03 17:26:00,82.8,63.0,29.81,WNW,285,0.0,2.0,52,0.00,,,0.00,weatherlink.com 1.10,2013-09-03 21:26:00,
2013-09-03 17:41:00,82.2,63.0,29.82,East,89,0.0,1.0,53,0.00,,,0.00,weatherlink.com 1.10,2013-09-03 21:41:00,
2013-09-03 17:56:00,81.8,63.0,29.82,ESE,119,0.0,2.0,53,0.00,,,0.00,weatherlink.com 1.10,2013-09-03 21:56:00,
2013-09-03 18:11:00,81.3,63.0,29.82,NE,44,1.0,1.0,54,0.00,,,0.00,weatherlink.com 1.10,2013-09-03 22:11:00,
2013-09-03 18:26:00,80.5,63.0,29.82,West,260,0.0,1.0,56,0.00,,,0.00,weatherlink.com 1.10,2013-09-03 22:26:00,
2013-09-03 18:41:00,79.2,65.0,29.82,West,261,0.0,1.0,61,0.00,,,0.00,weatherlink.com 1.10,2013-09-03 22:41:00,
2013-09-03 18:56:00,77.9,67.0,29.83,West,260,0.0,0.0,69,0.00,,,0.00,weatherlink.com 1.10,2013-09-03 22:56:00,
2013-09-03 19:11:00,76.4,66.0,29.83,West,260,0.0,0.0,70,0.00,,,0.00,weatherlink.com 1.10,2013-09-03 23:11:00,
2013-09-03 19:26:00,74.9,67.0,29.84,WNW,285,0.0,0.0,75,0.00,,,0.00,weatherlink.com 1.10,2013-09-03 23:26:00,
2013-09-03 19:41:00,73.8,67.0,29.84,WNW,285,0.0,0.0,80,0.00,,,0.00,weatherlink.com 1.10,2013-09-03 23:41:00,
2013-09-03 19:56:00,72.7,67.0,29.84,West,279,0.0,1.0,83,0.00,,,0.00,weatherlink.com 1.10,2013-09-03 23:56:00,
2013-09-03 20:11:00,71.9,66.0,29.85,West,271,0.0,0.0,82,0.00,,,0.00,weatherlink.com 1.10,2013-09-04 00:11:00,
2013-09-03 20:26:00,71.8,65.0,29.86,West,271,0.0,2.0,78,0.00,,,0.00,weatherlink.com 1.10,2013-09-04 00:26:00,
2013-09-03 20:41:00,71.7,64.0,29.86,West,273,0.0,0.0,77,0.00,,,0.00,weatherlink.com 1.10,2013-09-04 00:41:00,
2013-09-03 20:56:00,71.3,64.0,29.87,WSW,252,0.0,1.0,77,0.00,,,0.00,weatherlink.com 1.10,2013-09-04 00:56:00,
2013-09-03 21:11:00,71.0,63.0,29.88,WSW,246,0.0,1.0,77,0.00,,,0.00,weatherlink.com 1.10,2013-09-04 01:11:00,
2013-09-03 21:27:00,71.2,63.0,29.89,West,260,0.0,1.0,74,0.00,,,0.00,weatherlink.com 1.10,2013-09-04 01:27:00,
2013-09-03 21:42:00,72.5,62.0,29.89,WNW,294,0.0,2.0,69,0.00,,,0.00,weatherlink.com 1.10,2013-09-04 01:42:00,
2013-09-03 21:57:00,73.2,61.0,29.90,NNW,342,0.0,4.0,65,0.00,,,0.00,weatherlink.com 1.10,2013-09-04 01:57:00,
2013-09-03 22:12:00,72.9,60.0,29.90,West,270,0.0,2.0,65,0.00,,,0.00,weatherlink.com 1.10,2013-09-04 02:12:00,
2013-09-03 22:27:00,72.0,61.0,29.91,West,270,0.0,1.0,68,0.00,,,0.00,weatherlink.com 1.10,2013-09-04 02:27:00,
2013-09-03 22:42:00,71.1,61.0,29.91,West,269,0.0,2.0,71,0.00,,,0.00,weatherlink.com 1.10,2013-09-04 02:42:00,
2013-09-03 22:57:00,70.4,60.0,29.92,West,270,1.0,2.0,70,0.00,,,0.00,weatherlink.com 1.10,2013-09-04 02:57:00,
2013-09-03 23:12:00,70.5,61.0,29.92,WSW,250,0.0,2.0,71,0.00,,,0.00,weatherlink.com 1.10,2013-09-04 03:12:00,
2013-09-03 23:27:00,69.5,61.0,29.92,WSW,246,0.0,0.0,73,0.00,,,0.00,weatherlink.com 1.10,2013-09-04 03:27:00,
2013-09-03 23:42:00,69.4,60.0,29.93,WSW,255,1.0,3.0,73,0.00,,,0.00,weatherlink.com 1.10,2013-09-04 03:42:00,
2013-09-03 23:57:00,69.0,60.0,29.93,West,263,0.0,2.0,73,0.00,,,0.00,weatherlink.com 1.10,2013-09-04 03:57:00,